createdAt,value
2022-10-01T00:00:43.244Z,56.19
2022-10-01T00:01:43.299Z,54.44
2022-10-01T00:02:43.254Z,51.95
2022-10-01T00:03:43.220Z,49.50
2022-10-01T00:04:43.216Z,56.53
2022-10-01T00:05:43.211Z,52.07
2022-10-01T00:06:43.212Z,51.89
2022-10-01T00:07:43.190Z,54.62
2022-10-01T00:08:43.192Z,54.72
2022-10-01T00:09:43.181Z,55.31
2022-10-01T00:10:43.167Z,51.55
2022-10-01T00:11:43.318Z,51.48
2022-10-01T00:12:43.155Z,49.27
2022-10-01T00:13:43.156Z,50.36
2022-10-01T00:14:43.140Z,54.24
2022-10-01T00:15:43.128Z,52.44
2022-10-01T00:16:43.195Z,52.59
2022-10-01T00:17:43.126Z,52.68
2022-10-01T00:18:43.121Z,54.93
2022-10-01T00:19:43.107Z,52.60
2022-10-01T00:20:43.099Z,50.71
2022-10-01T00:21:43.092Z,48.30
2022-10-01T00:22:43.110Z,49.55
2022-10-01T00:23:43.076Z,52.15
2022-10-01T00:24:43.067Z,51.89
2022-10-01T00:25:43.068Z,52.94
2022-10-01T00:26:43.063Z,50.29
2022-10-01T00:27:43.138Z,51.31
2022-10-01T00:28:43.043Z,54.57
2022-10-01T00:29:43.039Z,51.20
2022-10-01T00:30:43.036Z,50.46
2022-10-01T00:31:43.110Z,51.25
2022-10-01T00:32:43.023Z,53.86
2022-10-01T00:33:43.024Z,51.82
2022-10-01T00:34:43.007Z,57.32
2022-10-01T00:35:42.999Z,52.96
2022-10-01T00:36:42.995Z,50.46
2022-10-01T00:37:43.000Z,52.28
2022-10-01T00:38:42.990Z,51.75
2022-10-01T00:39:42.965Z,55.29
2022-10-01T00:40:42.967Z,52.76
2022-10-01T00:41:42.963Z,52.37
2022-10-01T00:42:42.951Z,55.99
2022-10-01T00:43:43.186Z,53.27
2022-10-01T00:44:43.137Z,55.02
2022-10-01T00:45:42.977Z,55.04
2022-10-01T00:46:42.930Z,51.50
2022-10-01T00:47:42.919Z,54.56
2022-10-01T00:48:42.924Z,50.61
2022-10-01T00:49:43.906Z,53.73
2022-10-01T00:50:42.903Z,57.13
2022-10-01T00:51:42.893Z,53.53
2022-10-01T00:52:42.890Z,53.59
2022-10-01T00:53:42.895Z,52.23
2022-10-01T00:54:42.899Z,51.48
2022-10-01T00:55:42.867Z,51.87
2022-10-01T00:56:42.868Z,50.74
2022-10-01T00:57:42.848Z,56.68
2022-10-01T00:58:42.847Z,52.32
2022-10-01T00:59:42.860Z,50.40
2022-10-01T01:00:42.848Z,51.34
2022-10-01T01:01:42.877Z,51.85
2022-10-01T01:02:42.925Z,49.88
2022-10-01T01:03:42.819Z,53.09
2022-10-01T01:04:42.818Z,55.23
2022-10-01T01:05:42.802Z,55.33
2022-10-01T01:06:42.795Z,52.06
2022-10-01T01:07:42.795Z,54.00
2022-10-01T01:08:42.784Z,54.64
2022-10-01T01:09:42.800Z,53.10
2022-10-01T01:10:42.770Z,53.33
2022-10-01T01:11:42.766Z,54.70
2022-10-01T01:12:42.759Z,53.22
2022-10-01T01:13:42.750Z,54.21
2022-10-01T01:14:42.772Z,50.88
2022-10-01T01:15:42.807Z,52.66
2022-10-01T01:16:42.737Z,56.13
2022-10-01T01:17:42.736Z,58.29
2022-10-01T01:18:42.715Z,55.43
2022-10-01T01:19:42.723Z,47.84
2022-10-01T01:20:42.706Z,52.65
2022-10-01T01:21:42.704Z,53.78
2022-10-01T01:22:42.684Z,52.69
2022-10-01T01:23:42.689Z,50.21
2022-10-01T01:24:42.683Z,50.43
2022-10-01T01:25:42.684Z,53.97
2022-10-01T01:26:42.683Z,50.76
2022-10-01T01:27:42.741Z,54.43
2022-10-01T01:28:42.652Z,53.62
2022-10-01T01:29:42.639Z,52.40
2022-10-01T01:30:42.715Z,50.26
2022-10-01T01:31:42.633Z,56.37
2022-10-01T01:32:42.627Z,55.54
2022-10-01T01:33:42.616Z,57.74
2022-10-01T01:34:42.628Z,56.64
2022-10-01T01:35:42.621Z,55.49
2022-10-01T01:36:42.595Z,51.12
2022-10-01T01:37:42.592Z,50.99
2022-10-01T01:38:42.584Z,56.58
2022-10-01T01:39:42.587Z,55.89
2022-10-01T01:40:42.611Z,51.89
2022-10-01T01:41:42.563Z,58.69
2022-10-01T01:42:42.552Z,55.54
2022-10-01T01:43:42.549Z,53.68
2022-10-01T01:44:42.543Z,56.16
2022-10-01T01:45:42.556Z,52.84
2022-10-01T01:46:42.543Z,51.73
2022-10-01T01:47:42.547Z,51.54
2022-10-01T01:48:42.504Z,53.18
2022-10-01T01:49:42.509Z,55.58
2022-10-01T01:50:42.505Z,55.98
2022-10-01T01:51:42.501Z,52.45
2022-10-01T01:52:43.483Z,52.01
2022-10-01T01:53:42.515Z,54.29
2022-10-01T01:54:42.472Z,51.23
2022-10-01T01:55:42.460Z,50.50
2022-10-01T01:56:42.464Z,50.56
2022-10-01T01:57:42.436Z,51.62
2022-10-01T01:58:43.437Z,58.05
2022-10-01T01:59:42.432Z,56.52
2022-10-01T02:00:42.420Z,52.84
2022-10-01T02:01:42.485Z,54.15
2022-10-01T02:02:42.461Z,54.42
2022-10-01T02:03:42.405Z,59.24
2022-10-01T02:04:42.388Z,51.08
2022-10-01T02:05:42.394Z,51.30
2022-10-01T02:06:42.397Z,50.79
2022-10-01T02:07:42.401Z,51.67
2022-10-01T02:08:42.372Z,48.44
2022-10-01T02:09:42.373Z,52.73
2022-10-01T02:10:42.352Z,53.37
2022-10-01T02:11:42.366Z,55.10
2022-10-01T02:12:42.344Z,53.24
2022-10-01T02:13:42.354Z,52.07
2022-10-01T02:14:42.353Z,49.75
2022-10-01T02:15:42.389Z,54.69
2022-10-01T02:16:42.317Z,51.55
2022-10-01T02:17:42.338Z,52.56
2022-10-01T02:18:42.298Z,55.26
2022-10-01T02:19:42.293Z,56.04
2022-10-01T02:20:42.293Z,55.19
2022-10-01T02:21:42.277Z,51.86
2022-10-01T02:22:42.306Z,52.38
2022-10-01T02:23:42.262Z,57.00
2022-10-01T02:24:42.258Z,51.28
2022-10-01T02:25:42.249Z,52.48
2022-10-01T02:26:42.234Z,50.94
2022-10-01T02:27:42.234Z,52.39
2022-10-01T02:28:42.239Z,52.24
2022-10-01T02:29:42.210Z,53.20
2022-10-01T02:30:42.218Z,54.29
2022-10-01T02:31:42.338Z,52.31
2022-10-01T02:32:42.194Z,50.32
2022-10-01T02:33:42.198Z,49.70
2022-10-01T02:34:42.186Z,52.94
2022-10-01T02:35:42.177Z,54.73
2022-10-01T02:36:42.179Z,51.89
2022-10-01T02:37:42.162Z,54.36
2022-10-01T02:38:42.155Z,53.40
2022-10-01T02:39:42.157Z,56.68
2022-10-01T02:40:42.133Z,53.49
2022-10-01T02:41:42.129Z,52.59
2022-10-01T02:42:42.126Z,55.71
2022-10-01T02:43:43.073Z,53.42
2022-10-01T02:44:43.118Z,50.56
2022-10-01T02:45:42.183Z,52.27
2022-10-01T02:46:42.093Z,50.26
2022-10-01T02:47:42.081Z,56.59
2022-10-01T02:48:42.073Z,52.17
2022-10-01T02:49:42.084Z,56.20
2022-10-01T02:50:42.060Z,51.98
2022-10-01T02:51:42.073Z,54.93
2022-10-01T02:52:42.048Z,55.23
2022-10-01T02:53:42.038Z,53.35
2022-10-01T02:54:42.046Z,56.52
2022-10-01T02:55:42.032Z,51.83
2022-10-01T02:56:48.555Z,51.62
2022-10-01T02:57:43.019Z,55.07
2022-10-01T02:58:42.013Z,52.76
2022-10-01T02:59:42.010Z,51.12
2022-10-01T03:00:41.985Z,54.85
2022-10-01T03:01:42.034Z,52.27
2022-10-01T03:02:42.027Z,51.80
2022-10-01T03:03:41.969Z,55.23
2022-10-01T03:04:41.988Z,51.12
2022-10-01T03:05:41.954Z,51.32
2022-10-01T03:06:41.949Z,54.44
2022-10-01T03:07:41.944Z,56.63
2022-10-01T03:08:41.933Z,52.00
2022-10-01T03:09:41.953Z,52.03
2022-10-01T03:10:46.506Z,52.61
2022-10-01T03:11:42.910Z,52.78
2022-10-01T03:12:41.903Z,53.85
2022-10-01T03:13:41.901Z,50.75
2022-10-01T03:14:41.885Z,54.16
2022-10-01T03:15:41.931Z,54.36
2022-10-01T03:16:41.873Z,51.47
2022-10-01T03:17:41.917Z,56.68
2022-10-01T03:18:41.933Z,56.63
2022-10-01T03:19:41.858Z,57.55
2022-10-01T03:20:41.844Z,55.28
2022-10-01T03:21:41.848Z,53.29
2022-10-01T03:22:41.837Z,55.07
2022-10-01T03:23:41.834Z,58.37
2022-10-01T03:24:41.818Z,57.55
2022-10-01T03:25:41.809Z,54.61
2022-10-01T03:26:41.799Z,55.60
2022-10-01T03:27:41.798Z,56.44
2022-10-01T03:28:41.953Z,56.42
2022-10-01T03:29:42.785Z,56.94
2022-10-01T03:30:41.825Z,56.59
2022-10-01T03:31:41.807Z,55.68
2022-10-01T03:32:41.762Z,56.54
2022-10-01T03:33:42.002Z,57.88
2022-10-01T03:34:41.742Z,57.67
2022-10-01T03:35:41.732Z,53.28
2022-10-01T03:36:41.748Z,56.10
2022-10-01T03:37:41.728Z,59.11
2022-10-01T03:38:41.733Z,58.95
2022-10-01T03:39:41.727Z,56.32
2022-10-01T03:40:41.775Z,55.59
2022-10-01T03:41:41.700Z,55.57
2022-10-01T03:42:41.689Z,56.51
2022-10-01T03:43:41.685Z,56.17
2022-10-01T03:44:41.705Z,56.78
2022-10-01T03:45:41.735Z,55.06
2022-10-01T03:46:41.660Z,53.81
2022-10-01T03:47:41.653Z,57.57
2022-10-01T03:48:41.633Z,55.28
2022-10-01T03:49:41.662Z,55.60
2022-10-01T03:50:41.658Z,56.10
2022-10-01T03:51:41.630Z,54.15
2022-10-01T03:52:41.624Z,56.99
2022-10-01T03:53:41.618Z,56.32
2022-10-01T03:54:41.605Z,57.76
2022-10-01T03:55:41.604Z,55.12
2022-10-01T03:56:41.601Z,55.81
2022-10-01T03:57:41.577Z,55.29
2022-10-01T03:58:41.570Z,55.56
2022-10-01T03:59:41.561Z,54.02
2022-10-01T04:00:41.561Z,55.14
2022-10-01T04:01:41.621Z,58.05
2022-10-01T04:02:41.640Z,54.97
2022-10-01T04:03:41.533Z,55.29
2022-10-01T04:04:41.543Z,56.90
2022-10-01T04:05:41.523Z,59.16
2022-10-01T04:06:41.517Z,55.95
2022-10-01T04:07:41.501Z,58.89
2022-10-01T04:08:41.498Z,59.29
2022-10-01T04:09:41.504Z,55.81
2022-10-01T04:10:41.489Z,56.49
2022-10-01T04:11:41.475Z,58.14
2022-10-01T04:12:41.471Z,57.46
2022-10-01T04:13:41.457Z,54.07
2022-10-01T04:14:41.457Z,59.03
2022-10-01T04:15:41.470Z,57.06
2022-10-01T04:16:41.481Z,57.18
2022-10-01T04:17:45.736Z,57.09
2022-10-01T04:18:42.424Z,58.24
2022-10-01T04:19:41.422Z,56.92
2022-10-01T04:20:41.429Z,59.37
2022-10-01T04:21:41.409Z,57.68
2022-10-01T04:22:41.401Z,60.78
2022-10-01T04:23:41.392Z,60.86
2022-10-01T04:24:41.390Z,61.00
2022-10-01T04:25:41.380Z,57.73
2022-10-01T04:26:41.393Z,59.40
2022-10-01T04:27:41.416Z,60.10
2022-10-01T04:28:41.353Z,58.65
2022-10-01T04:29:41.350Z,57.12
2022-10-01T04:30:41.351Z,57.81
2022-10-01T04:31:41.403Z,58.76
2022-10-01T04:32:41.338Z,59.64
2022-10-01T04:33:41.335Z,60.17
2022-10-01T04:34:41.321Z,59.55
2022-10-01T04:35:41.300Z,59.58
2022-10-01T04:36:41.317Z,59.29
2022-10-01T04:37:41.293Z,59.19
2022-10-01T04:38:41.288Z,61.68
2022-10-01T04:39:41.288Z,60.73
2022-10-01T04:40:41.275Z,60.65
2022-10-01T04:41:41.285Z,61.58
2022-10-01T04:42:41.261Z,61.14
2022-10-01T04:43:41.253Z,61.48
2022-10-01T04:44:42.249Z,60.65
2022-10-01T04:45:41.249Z,61.47
2022-10-01T04:46:41.317Z,60.47
2022-10-01T04:47:41.249Z,61.61
2022-10-01T04:48:41.220Z,61.76
2022-10-01T04:49:41.200Z,62.79
2022-10-01T04:50:41.291Z,61.01
2022-10-01T04:51:41.220Z,61.73
2022-10-01T04:52:41.181Z,60.15
2022-10-01T04:53:41.188Z,59.22
2022-10-01T04:54:41.177Z,58.21
2022-10-01T04:55:41.174Z,57.82
2022-10-01T04:56:41.165Z,60.76
2022-10-01T04:57:41.186Z,63.75
2022-10-01T04:58:41.140Z,59.69
2022-10-01T04:59:41.142Z,60.13
2022-10-01T05:00:41.180Z,59.83
2022-10-01T05:01:41.226Z,61.00
2022-10-01T05:02:41.141Z,59.89
2022-10-01T05:03:41.106Z,58.45
2022-10-01T05:04:41.109Z,59.77
2022-10-01T05:05:41.132Z,60.15
2022-10-01T05:06:42.092Z,57.55
2022-10-01T05:07:41.076Z,54.81
2022-10-01T05:08:41.109Z,56.23
2022-10-01T05:09:41.076Z,57.97
2022-10-01T05:10:41.066Z,57.91
2022-10-01T05:11:41.068Z,59.18
2022-10-01T05:12:41.056Z,58.81
2022-10-01T05:13:41.056Z,58.91
2022-10-01T05:14:41.035Z,58.62
2022-10-01T05:15:41.034Z,60.71
2022-10-01T05:16:41.116Z,60.65
2022-10-01T05:17:41.020Z,59.21
2022-10-01T05:18:41.028Z,58.22
2022-10-01T05:19:41.012Z,58.89
2022-10-01T05:20:41.000Z,59.39
2022-10-01T05:21:40.992Z,60.54
2022-10-01T05:22:40.980Z,59.21
2022-10-01T05:23:41.153Z,60.44
2022-10-01T05:24:40.976Z,60.78
2022-10-01T05:25:40.965Z,59.57
2022-10-01T05:26:40.948Z,60.57
2022-10-01T05:27:40.947Z,60.49
2022-10-01T05:28:40.980Z,59.61
2022-10-01T05:29:40.941Z,60.81
2022-10-01T05:30:40.928Z,60.05
2022-10-01T05:31:40.950Z,58.94
2022-10-01T05:32:40.908Z,60.70
2022-10-01T05:33:40.903Z,59.68
2022-10-01T05:34:40.928Z,59.93
2022-10-01T05:35:40.896Z,61.12
2022-10-01T05:36:40.880Z,60.78
2022-10-01T05:37:40.865Z,61.04
2022-10-01T05:38:40.873Z,62.45
2022-10-01T05:39:40.880Z,61.11
2022-10-01T05:40:40.860Z,59.33
2022-10-01T05:41:40.859Z,59.57
2022-10-01T05:42:40.841Z,59.71
2022-10-01T05:43:40.824Z,61.45
2022-10-01T05:44:40.838Z,60.04
2022-10-01T05:45:40.882Z,60.68
2022-10-01T05:46:40.813Z,59.85
2022-10-01T05:47:40.833Z,59.44
2022-10-01T05:48:40.807Z,59.38
2022-10-01T05:49:40.784Z,61.27
2022-10-01T05:50:40.801Z,60.20
2022-10-01T05:51:40.783Z,58.34
2022-10-01T05:52:40.769Z,59.48
2022-10-01T05:53:40.771Z,61.09
2022-10-01T05:54:40.762Z,58.73
2022-10-01T05:55:40.760Z,58.97
2022-10-01T05:56:40.748Z,58.90
2022-10-01T05:57:40.748Z,60.61
2022-10-01T05:58:40.716Z,61.02
2022-10-01T05:59:40.722Z,58.74
2022-10-01T06:00:40.723Z,59.48
2022-10-01T06:01:40.764Z,57.45
2022-10-01T06:02:40.855Z,57.65
2022-10-01T06:03:40.696Z,57.59
2022-10-01T06:04:41.381Z,60.14
2022-10-01T06:05:41.679Z,61.23
2022-10-01T06:06:40.695Z,59.34
2022-10-01T06:07:40.668Z,59.44
2022-10-01T06:08:40.663Z,59.80
2022-10-01T06:09:40.664Z,59.66
2022-10-01T06:10:40.656Z,58.91
2022-10-01T06:11:40.631Z,60.28
2022-10-01T06:12:40.634Z,61.30
2022-10-01T06:13:40.651Z,61.29
2022-10-01T06:14:40.751Z,61.50
2022-10-01T06:15:40.629Z,58.77
2022-10-01T06:16:40.716Z,61.04
2022-10-01T06:17:40.596Z,60.96
2022-10-01T06:18:40.619Z,61.15
2022-10-01T06:19:40.588Z,61.30
2022-10-01T06:20:40.576Z,61.13
2022-10-01T06:21:40.577Z,61.72
2022-10-01T06:22:40.579Z,60.98
2022-10-01T06:23:40.572Z,61.25
2022-10-01T06:24:40.548Z,60.76
2022-10-01T06:25:40.544Z,62.68
2022-10-01T06:26:40.544Z,62.42
2022-10-01T06:27:40.538Z,61.96
2022-10-01T06:28:40.525Z,63.65
2022-10-01T06:29:40.541Z,62.69
2022-10-01T06:30:40.504Z,61.39
2022-10-01T06:31:40.554Z,60.95
2022-10-01T06:32:40.496Z,60.59
2022-10-01T06:33:40.487Z,61.19
2022-10-01T06:34:40.496Z,62.93
2022-10-01T06:35:40.469Z,60.52
2022-10-01T06:36:40.464Z,60.83
2022-10-01T06:37:40.461Z,59.70
2022-10-01T06:38:40.454Z,62.72
2022-10-01T06:39:40.449Z,59.34
2022-10-01T06:40:40.459Z,61.04
2022-10-01T06:41:40.427Z,60.57
2022-10-01T06:42:40.419Z,59.58
2022-10-01T06:43:40.418Z,61.19
2022-10-01T06:44:40.399Z,63.58
2022-10-01T06:45:40.467Z,63.53
2022-10-01T06:46:40.388Z,62.64
2022-10-01T06:47:40.389Z,60.96
2022-10-01T06:48:40.379Z,62.15
2022-10-01T06:49:41.539Z,65.01
2022-10-01T06:50:40.364Z,62.20
2022-10-01T06:51:40.373Z,62.42
2022-10-01T06:52:40.460Z,62.54
2022-10-01T06:53:40.335Z,63.55
2022-10-01T06:54:40.332Z,62.73
2022-10-01T06:55:40.319Z,61.54
2022-10-01T06:56:40.339Z,61.47
2022-10-01T06:57:40.315Z,61.79
2022-10-01T06:58:40.309Z,62.59
2022-10-01T06:59:40.300Z,62.34
2022-10-01T07:00:40.350Z,62.54
2022-10-01T07:01:40.322Z,63.48
2022-10-01T07:02:40.428Z,62.10
2022-10-01T07:03:40.285Z,63.22
2022-10-01T07:04:40.270Z,61.89
2022-10-01T07:05:40.252Z,61.35
2022-10-01T07:06:40.239Z,62.30
2022-10-01T07:07:40.253Z,64.26
2022-10-01T07:08:40.247Z,63.00
2022-10-01T07:09:40.264Z,63.26
2022-10-01T07:10:40.230Z,61.17
2022-10-01T07:11:40.213Z,61.19
2022-10-01T07:12:40.202Z,61.08
2022-10-01T07:13:40.218Z,62.74
2022-10-01T07:14:40.205Z,61.81
2022-10-01T07:15:40.184Z,62.69
2022-10-01T07:16:40.227Z,63.40
2022-10-01T07:17:40.173Z,63.17
2022-10-01T07:18:40.168Z,62.80
2022-10-01T07:19:40.167Z,62.93
2022-10-01T07:20:40.152Z,62.35
2022-10-01T07:21:40.158Z,64.49
2022-10-01T07:22:40.138Z,64.30
2022-10-01T07:23:40.135Z,63.39
2022-10-01T07:24:40.125Z,63.32
2022-10-01T07:25:40.121Z,63.02
2022-10-01T07:26:40.117Z,62.87
2022-10-01T07:27:40.097Z,63.39
2022-10-01T07:28:40.085Z,62.98
2022-10-01T07:29:40.083Z,62.90
2022-10-01T07:30:40.078Z,64.38
2022-10-01T07:31:40.112Z,63.41
2022-10-01T07:32:40.077Z,63.40
2022-10-01T07:33:40.061Z,61.39
2022-10-01T07:34:40.048Z,61.66
2022-10-01T07:35:40.042Z,62.73
2022-10-01T07:36:40.053Z,61.68
2022-10-01T07:37:40.025Z,61.76
2022-10-01T07:38:40.026Z,60.91
2022-10-01T07:39:40.006Z,61.83
2022-10-01T07:40:39.997Z,62.90
2022-10-01T07:41:40.011Z,64.67
2022-10-01T07:42:40.099Z,63.40
2022-10-01T07:43:39.981Z,63.22
2022-10-01T07:44:39.970Z,62.38
2022-10-01T07:45:39.982Z,63.18
2022-10-01T07:46:39.961Z,63.57
2022-10-01T07:47:39.964Z,64.15
2022-10-01T07:48:39.941Z,61.29
2022-10-01T07:49:39.933Z,62.09
2022-10-01T07:50:39.925Z,62.22
2022-10-01T07:51:39.921Z,62.55
2022-10-01T07:52:39.929Z,64.03
2022-10-01T07:53:39.905Z,63.87
2022-10-01T07:54:39.894Z,63.38
2022-10-01T07:55:39.901Z,62.56
2022-10-01T07:56:39.893Z,62.80
2022-10-01T07:57:39.890Z,64.47
2022-10-01T07:58:39.873Z,63.66
2022-10-01T07:59:39.866Z,61.51
2022-10-01T08:00:39.862Z,61.93
2022-10-01T08:01:39.880Z,63.25
2022-10-01T08:02:39.943Z,62.45
2022-10-01T08:03:39.829Z,62.64
2022-10-01T08:04:39.834Z,63.46
2022-10-01T08:05:39.825Z,61.72
2022-10-01T08:06:39.805Z,62.44
2022-10-01T08:07:39.805Z,61.75
2022-10-01T08:08:39.809Z,62.33
2022-10-01T08:09:39.791Z,64.33
2022-10-01T08:10:39.793Z,64.43
2022-10-01T08:11:39.777Z,63.02
2022-10-01T08:12:39.770Z,61.03
2022-10-01T08:13:39.773Z,63.20
2022-10-01T08:14:39.766Z,62.49
2022-10-01T08:15:39.745Z,61.66
2022-10-01T08:16:39.807Z,62.53
2022-10-01T08:17:39.728Z,62.50
2022-10-01T08:18:39.729Z,62.47
2022-10-01T08:19:39.717Z,61.87
2022-10-01T08:20:39.722Z,61.01
2022-10-01T08:21:39.696Z,62.53
2022-10-01T08:22:42.102Z,63.19
2022-10-01T08:23:40.734Z,63.53
2022-10-01T08:24:39.677Z,61.60
2022-10-01T08:25:39.692Z,62.18
2022-10-01T08:26:39.675Z,63.47
2022-10-01T08:27:39.661Z,62.13
2022-10-01T08:28:39.653Z,64.79
2022-10-01T08:29:39.681Z,63.78
2022-10-01T08:30:39.651Z,63.81
2022-10-01T08:31:39.664Z,63.50
2022-10-01T08:32:39.620Z,64.36
2022-10-01T08:33:39.620Z,63.47
2022-10-01T08:34:39.624Z,61.05
2022-10-01T08:35:39.629Z,63.11
2022-10-01T08:36:39.592Z,63.37
2022-10-01T08:37:39.590Z,62.86
2022-10-01T08:38:39.583Z,63.36
2022-10-01T08:39:39.584Z,63.31
2022-10-01T08:40:39.565Z,62.25
2022-10-01T08:41:39.991Z,62.76
2022-10-01T08:42:39.544Z,62.03
2022-10-01T08:43:39.534Z,63.30
2022-10-01T08:44:39.533Z,63.38
2022-10-01T08:45:39.553Z,62.94
2022-10-01T08:46:39.520Z,63.93
2022-10-01T08:47:39.517Z,61.85
2022-10-01T08:48:39.506Z,62.49
2022-10-01T08:49:39.500Z,62.39
2022-10-01T08:50:39.504Z,63.91
2022-10-01T08:51:39.484Z,63.19
2022-10-01T08:52:39.469Z,64.39
2022-10-01T08:53:39.477Z,65.63
2022-10-01T08:54:39.457Z,65.91
2022-10-01T08:55:39.470Z,67.17
2022-10-01T08:56:39.468Z,62.47
2022-10-01T08:57:39.443Z,62.83
2022-10-01T08:58:39.428Z,62.62
2022-10-01T08:59:39.425Z,62.93
2022-10-01T09:00:39.418Z,62.09
2022-10-01T09:01:39.698Z,61.61
2022-10-01T09:02:39.404Z,62.02
2022-10-01T09:03:39.404Z,63.16
2022-10-01T09:04:39.449Z,64.79
2022-10-01T09:05:39.384Z,63.58
2022-10-01T09:06:39.392Z,62.44
2022-10-01T09:07:39.369Z,62.64
2022-10-01T09:08:39.356Z,63.45
2022-10-01T09:09:39.345Z,62.69
2022-10-01T09:10:39.337Z,62.72
2022-10-01T09:11:39.345Z,65.14
2022-10-01T09:12:39.332Z,63.11
2022-10-01T09:13:39.320Z,62.06
2022-10-01T09:14:39.303Z,63.31
2022-10-01T09:15:40.308Z,63.10
2022-10-01T09:16:39.374Z,62.14
2022-10-01T09:17:39.300Z,61.16
2022-10-01T09:18:39.280Z,63.56
2022-10-01T09:19:40.862Z,62.70
2022-10-01T09:20:40.276Z,62.69
2022-10-01T09:21:39.273Z,62.34
2022-10-01T09:22:39.268Z,62.86
2022-10-01T09:23:39.253Z,61.21
2022-10-01T09:24:39.236Z,62.17
2022-10-01T09:25:39.233Z,61.48
2022-10-01T09:26:39.228Z,62.71
2022-10-01T09:27:39.227Z,62.25
2022-10-01T09:28:39.223Z,63.42
2022-10-01T09:29:39.208Z,62.99
2022-10-01T09:30:39.200Z,61.13
2022-10-01T09:31:39.262Z,63.24
2022-10-01T09:32:39.208Z,62.55
2022-10-01T09:33:39.179Z,62.18
2022-10-01T09:34:39.168Z,61.91
2022-10-01T09:35:39.163Z,61.38
2022-10-01T09:36:39.155Z,62.85
2022-10-01T09:37:39.163Z,62.38
2022-10-01T09:38:39.144Z,62.28
2022-10-01T09:39:39.148Z,62.38
2022-10-01T09:40:39.127Z,63.11
2022-10-01T09:41:39.134Z,63.00
2022-10-01T09:42:39.104Z,62.36
2022-10-01T09:43:39.124Z,61.61
2022-10-01T09:44:39.096Z,64.33
2022-10-01T09:45:39.146Z,63.67
2022-10-01T09:46:39.096Z,62.36
2022-10-01T09:47:39.080Z,63.02
2022-10-01T09:48:39.063Z,63.69
2022-10-01T09:49:39.059Z,61.96
2022-10-01T09:50:39.055Z,62.04
2022-10-01T09:51:40.718Z,62.52
2022-10-01T09:52:40.040Z,62.70
2022-10-01T09:53:39.048Z,62.03
2022-10-01T09:54:39.016Z,61.83
2022-10-01T09:55:39.029Z,62.43
2022-10-01T09:56:39.012Z,62.71
2022-10-01T09:57:39.004Z,64.54
2022-10-01T09:58:39.008Z,63.51
2022-10-01T09:59:38.992Z,61.73
2022-10-01T10:00:38.985Z,63.12
2022-10-01T10:01:39.230Z,64.25
2022-10-01T10:02:39.076Z,63.91
2022-10-01T10:03:39.035Z,63.18
2022-10-01T10:04:38.962Z,63.32
2022-10-01T10:05:38.948Z,62.86
2022-10-01T10:06:38.953Z,64.10
2022-10-01T10:07:38.944Z,62.16
2022-10-01T10:08:38.947Z,61.83
2022-10-01T10:09:38.918Z,62.17
2022-10-01T10:10:38.920Z,63.08
2022-10-01T10:11:38.911Z,62.68
2022-10-01T10:12:38.899Z,62.82
2022-10-01T10:13:38.912Z,64.27
2022-10-01T10:14:38.888Z,62.41
2022-10-01T10:15:38.902Z,62.56
2022-10-01T10:16:39.027Z,63.06
2022-10-01T10:17:38.871Z,62.82
2022-10-01T10:18:38.859Z,61.75
2022-10-01T10:19:38.867Z,62.20
2022-10-01T10:20:38.849Z,61.70
2022-10-01T10:21:38.838Z,62.71
2022-10-01T10:22:38.826Z,62.47
2022-10-01T10:23:38.819Z,62.23
2022-10-01T10:24:39.831Z,62.18
2022-10-01T10:25:38.823Z,60.82
2022-10-01T10:26:39.209Z,63.30
2022-10-01T10:27:38.791Z,60.96
2022-10-01T10:28:42.116Z,62.02
2022-10-01T10:29:40.795Z,62.34
2022-10-01T10:30:38.778Z,61.47
2022-10-01T10:31:38.803Z,62.01
2022-10-01T10:32:38.768Z,62.32
2022-10-01T10:33:38.757Z,60.82
2022-10-01T10:34:38.762Z,63.98
2022-10-01T10:35:38.737Z,64.43
2022-10-01T10:36:38.888Z,64.33
2022-10-01T10:37:38.723Z,62.36
2022-10-01T10:38:38.717Z,62.50
2022-10-01T10:39:38.725Z,61.20
2022-10-01T10:40:38.708Z,61.81
2022-10-01T10:41:38.816Z,63.33
2022-10-01T10:42:38.716Z,60.52
2022-10-01T10:43:38.689Z,61.94
2022-10-01T10:44:38.681Z,63.17
2022-10-01T10:45:38.689Z,62.06
2022-10-01T10:46:42.801Z,63.19
2022-10-01T10:47:39.661Z,62.90
2022-10-01T10:48:38.672Z,63.07
2022-10-01T10:49:38.644Z,63.82
2022-10-01T10:50:38.647Z,64.38
2022-10-01T10:51:38.632Z,63.97
2022-10-01T10:52:40.789Z,62.28
2022-10-01T10:53:39.617Z,62.61
2022-10-01T10:54:38.608Z,62.56
2022-10-01T10:55:38.620Z,63.32
2022-10-01T10:56:38.583Z,62.98
2022-10-01T10:57:38.596Z,63.27
2022-10-01T10:58:38.572Z,62.46
2022-10-01T10:59:38.571Z,62.52
2022-10-01T11:00:38.566Z,62.10
2022-10-01T11:01:38.629Z,74.11
2022-10-01T11:02:38.632Z,68.67
2022-10-01T11:03:38.548Z,61.57
2022-10-01T11:04:38.547Z,62.90
2022-10-01T11:05:38.536Z,62.40
2022-10-01T11:06:38.540Z,61.84
2022-10-01T11:07:38.516Z,62.15
2022-10-01T11:08:39.507Z,62.39
2022-10-01T11:09:38.503Z,62.16
2022-10-01T11:10:38.495Z,61.24
2022-10-01T11:11:38.494Z,60.54
2022-10-01T11:12:38.504Z,61.74
2022-10-01T11:13:38.472Z,62.92
2022-10-01T11:14:38.472Z,63.52
2022-10-01T11:15:38.501Z,62.08
2022-10-01T11:16:38.447Z,62.53
2022-10-01T11:17:38.473Z,60.27
2022-10-01T11:18:38.439Z,59.60
2022-10-01T11:19:38.421Z,60.27
2022-10-01T11:20:38.436Z,60.83
2022-10-01T11:21:38.428Z,61.89
2022-10-01T11:22:38.425Z,62.03
2022-10-01T11:23:38.396Z,62.67
2022-10-01T11:24:38.395Z,61.94
2022-10-01T11:25:38.392Z,62.57
2022-10-01T11:26:38.384Z,61.01
2022-10-01T11:27:38.379Z,60.66
2022-10-01T11:28:38.394Z,61.60
2022-10-01T11:29:38.362Z,60.88
2022-10-01T11:30:38.355Z,61.78
2022-10-01T11:31:38.401Z,60.83
2022-10-01T11:32:38.377Z,61.71
2022-10-01T11:33:38.360Z,62.45
2022-10-01T11:34:38.332Z,60.92
2022-10-01T11:35:38.324Z,60.65
2022-10-01T11:36:38.323Z,61.26
2022-10-01T11:37:38.307Z,61.18
2022-10-01T11:38:38.377Z,62.06
2022-10-01T11:39:38.288Z,60.60
2022-10-01T11:40:38.310Z,61.45
2022-10-01T11:41:38.287Z,60.25
2022-10-01T11:42:38.315Z,60.05
2022-10-01T11:43:38.271Z,60.68
2022-10-01T11:44:38.259Z,60.53
2022-10-01T11:45:38.259Z,61.54
2022-10-01T11:46:38.774Z,60.01
2022-10-01T11:47:38.257Z,60.94
2022-10-01T11:48:38.243Z,61.13
2022-10-01T11:49:38.227Z,61.71
2022-10-01T11:50:39.483Z,61.28
2022-10-01T11:51:39.386Z,60.53
2022-10-01T11:52:38.211Z,60.66
2022-10-01T11:53:38.200Z,62.13
2022-10-01T11:54:38.196Z,61.69
2022-10-01T11:55:38.191Z,60.96
2022-10-01T11:56:38.179Z,60.13
2022-10-01T11:57:38.191Z,60.45
2022-10-01T11:58:38.177Z,62.26
2022-10-01T11:59:38.155Z,60.78
2022-10-01T12:00:38.157Z,61.48
2022-10-01T12:01:38.169Z,61.31
2022-10-01T12:02:38.152Z,62.65
2022-10-01T12:03:38.136Z,61.29
2022-10-01T12:04:38.134Z,61.04
2022-10-01T12:05:38.183Z,62.04
2022-10-01T12:06:38.369Z,62.11
2022-10-01T12:07:38.143Z,60.07
2022-10-01T12:08:38.111Z,60.60
2022-10-01T12:09:38.095Z,61.88
2022-10-01T12:10:38.095Z,61.77
2022-10-01T12:11:38.071Z,61.53
2022-10-01T12:12:38.075Z,61.82
2022-10-01T12:13:38.091Z,61.61
2022-10-01T12:14:39.355Z,60.46
2022-10-01T12:15:38.059Z,61.15
2022-10-01T12:16:38.563Z,61.25
2022-10-01T12:17:38.075Z,61.91
2022-10-01T12:18:38.039Z,62.76
2022-10-01T12:19:38.030Z,61.95
2022-10-01T12:20:38.032Z,62.02
2022-10-01T12:21:38.015Z,60.08
2022-10-01T12:22:38.015Z,60.80
2022-10-01T12:23:38.006Z,60.48
2022-10-01T12:24:37.992Z,61.99
2022-10-01T12:25:37.984Z,62.07
2022-10-01T12:26:38.265Z,62.75
2022-10-01T12:27:37.967Z,62.43
2022-10-01T12:28:37.975Z,61.76
2022-10-01T12:29:37.952Z,62.36
2022-10-01T12:30:37.959Z,63.40
2022-10-01T12:31:38.013Z,62.30
2022-10-01T12:32:38.060Z,61.87
2022-10-01T12:33:37.934Z,61.90
2022-10-01T12:34:37.922Z,60.98
2022-10-01T12:35:37.917Z,61.67
2022-10-01T12:36:38.078Z,61.64
2022-10-01T12:37:37.891Z,61.53
2022-10-01T12:38:37.896Z,61.71
2022-10-01T12:39:37.876Z,61.83
2022-10-01T12:40:37.871Z,60.33
2022-10-01T12:41:37.863Z,63.01
2022-10-01T12:42:37.862Z,61.84
2022-10-01T12:43:37.897Z,62.24
2022-10-01T12:44:37.854Z,61.98
2022-10-01T12:45:37.851Z,61.29
2022-10-01T12:46:38.432Z,61.11
2022-10-01T12:47:37.827Z,61.25
2022-10-01T12:48:37.823Z,62.34
2022-10-01T13:00:10.449Z,60.62
2022-10-01T13:01:10.485Z,60.93
2022-10-01T13:02:10.529Z,59.62
2022-10-01T13:03:10.433Z,59.54